Home > Products > Valid Products > TAF

000
FTUS43 KBIS 010000 AAA
TAFMOT
TAF AMD
KMOT 010059Z 0101/0124 14014G22KT P6SM SKC
     FM012300 15009KT P6SM SCT200=



000
FTUS43 KBIS 010000 AAA
TAFBIS
TAF AMD
KBIS 010046Z 0101/0124 13010KT P6SM SKC=



000
FTUS43 KBIS 312300
TAFMOT
TAF
KMOT 312322Z 0100/0124 13015KT P6SM SCT150
     FM012300 15009KT P6SM SCT200=



000
FTUS43 KBIS 312300
TAFDIK
TAF
KDIK 312322Z 0100/0124 16018G26KT P6SM SCT150
     FM010400 16016KT P6SM FEW200=



000
FTUS43 KBIS 312300
TAFBIS
TAF
KBIS 312322Z 0100/0124 16014KT P6SM SCT150=



000
FTUS43 KBIS 312300
TAFJMS
TAF
KJMS 312322Z 0100/0124 16011KT P6SM SCT150
     FM011400 17020G29KT P6SM FEW200=



000
FTUS43 KBIS 312300
TAFISN
TAF
KISN 312322Z 0100/0124 14014KT P6SM SCT150
     FM011000 14010KT P6SM FEW200=



000
FTUS43 KBIS 311700
TAFJMS
TAF
KJMS 311722Z 3118/0118 17012KT P6SM SKC
     FM011300 16019G27KT P6SM FEW250=



000
FTUS43 KBIS 311700
TAFMOT
TAF
KMOT 311722Z 3118/0118 15016G25KT P6SM SKC
     FM010000 14012KT P6SM SCT200=



000
FTUS43 KBIS 311700
TAFDIK
TAF
KDIK 311722Z 3118/0118 16023G28KT P6SM FEW015 SCT250
     FM312000 15026G37KT P6SM SCT250
     FM010000 14020KT P6SM SCT250
     FM010400 16015KT P6SM SCT250=



000
FTUS43 KBIS 311700
TAFBIS
TAF
KBIS 311722Z 3118/0118 16016KT P6SM SCT250=



000
FTUS43 KBIS 311700
TAFISN
TAF
KISN 311722Z 3118/0118 14014G26KT P6SM SCT250
     FM010000 14010KT P6SM SCT200
     FM011200 15006KT P6SM SCT200=



000
FTUS43 KBIS 311700 AAA
TAFJMS
TAF AMD
KJMS 311705Z 3117/0112 18012KT P6SM SKC
     FM312100 16015G19KT P6SM SCT250
     FM010100 15017G24KT P6SM FEW180 SCT220=



000
FTUS43 KBIS 311700 AAE
TAFDIK
TAF AMD
KDIK 311703Z 3117/0112 16023G28KT P6SM FEW010 SCT250
     FM311900 15025G36KT P6SM SCT250
     FM010100 14019G24KT P6SM SCT220=



000
FTUS43 KBIS 311600 AAC
TAFISN
TAF AMD
KISN 311643Z 3117/0112 13015KT P6SM SCT015 SCT250
     FM311800 14017G25KT P6SM FEW020 SCT250
     FM010000 13009KT P6SM SCT250=



000
FTUS43 KBIS 311600 AAC
TAFISN
TAF AMD
KISN 311643Z 3117/0112 13015KT P6SM SCT015 SCT250
     FM311800 14017G25KT P6SM FEW020 SCT250
     FM010000 13009KT P6SM SCT250=



000
FTUS43 KBIS 311600 AAD
TAFDIK
TAF AMD
KDIK 311609Z 3116/0112 16021G33KT P6SM FEW007 SCT200
     FM311700 15027G38KT P6SM SCT012
      TEMPO 3117/3118 BKN012
     FM312000 15027G36KT P6SM SCT250
     FM010100 14019G24KT P6SM SCT220=



000
FTUS43 KBIS 311600 AAB
TAFISN
TAF AMD
KISN 311603Z 3116/0112 14012G18KT P6SM BKN015
     FM311800 14017G25KT P6SM FEW020 SCT250
     FM010000 13009KT P6SM SCT250=



000
FTUS43 KBIS 311500 AAC
TAFDIK
TAF AMD
KDIK 311514Z 3115/0112 16019G27KT P6SM OVC005
     FM311600 16020G30KT P6SM OVC007
     FM311800 15027G38KT P6SM BKN012
     FM312000 15027G36KT P6SM SCT250
     FM010100 14019G24KT P6SM SCT220=



000
FTUS43 KBIS 311400 AAA
TAFISN
TAF AMD
KISN 311405Z 3114/0112 16010KT P6SM OVC015
     FM311600 16016G24KT P6SM BKN020
     FM311800 14017G25KT P6SM FEW030 SCT250
     FM010000 13009KT P6SM SCT250=



000
FTUS43 KBIS 311300 AAB
TAFDIK
TAF AMD
KDIK 311338Z 3114/0112 16023KT P6SM OVC005
     FM311400 16025G32KT P6SM OVC007
     FM311800 15027G38KT P6SM SCT200
     FM010100 14019G24KT P6SM SCT220=



000
FTUS43 KBIS 311200 AAA
TAFDIK
TAF AMD
KDIK 311212Z 3112/0112 16017KT P6SM BKN007 OVC010
     FM311400 15019G26KT P6SM SCT010 SCT300
     FM311800 15027G38KT P6SM SCT200
     FM010100 14019G24KT P6SM SCT220=



000
FTUS43 KBIS 311100
TAFISN
TAF
KISN 311135Z 3112/0112 15012G17KT P6SM OVC015
      TEMPO 3113/3114 SCT015 SCT300
     FM311400 14013G20KT P6SM FEW020 SCT300
     FM311600 14017G25KT P6SM FEW180 SCT250
     FM010000 13009KT P6SM SCT250=



000
FTUS43 KBIS 311100
TAFDIK
TAF
KDIK 311135Z 3112/0112 16017KT P6SM SCT010
     FM311400 15019G26KT P6SM SCT010 SCT300
     FM311800 15027G38KT P6SM SCT200
     FM010100 14019G24KT P6SM SCT220=



000
FTUS43 KBIS 311100
TAFBIS
TAF
KBIS 311135Z 3112/0112 10006KT P6SM SKC
     FM311500 14015KT P6SM FEW300
     FM311900 15018G27KT P6SM FEW180 SCT250
     FM010000 14017G24KT P6SM SCT200=



000
FTUS43 KBIS 311100
TAFJMS
TAF
KJMS 311135Z 3112/0112 15005KT P6SM SKC
     FM311800 16011KT P6SM FEW300
     FM312100 16015G19KT P6SM SCT250
     FM010100 15017G24KT P6SM FEW180 SCT220=



000
FTUS43 KBIS 311100
TAFMOT
TAF
KMOT 311135Z 3112/0112 14011KT P6SM FEW300
     FM311600 15014G22KT P6SM SCT250
     FM311900 14019G25KT P6SM SCT200
     FM010000 14016G21KT P6SM SCT220=



000
FTUS43 KBIS 311000 AAA
TAFDIK
TAF AMD
KDIK 311002Z 3110/0106 16015G21KT P6SM OVC008
      TEMPO 3110/3112 SCT011
     FM311200 15017G25KT P6SM SCT010 SCT300
     FM311600 15023G29KT P6SM SCT035 SCT250
     FM311800 15027G38KT P6SM SCT200
     FM010000 14020G26KT P6SM SCT220=



000
FTUS43 KBIS 311000 AAA
TAFISN
TAF AMD
KISN 311001Z 3110/0106 15012G17KT P6SM OVC015
      TEMPO 3110/3112 SCT015
     FM311200 14013G18KT P6SM SCT015
     FM311400 14011KT P6SM FEW020 SCT300
     FM311600 14017G25KT P6SM FEW180 SCT250
     FM010000 13011KT P6SM SCT250=



000
FTUS43 KBIS 310500
TAFMOT
TAF
KMOT 310539Z 3106/0106 20004KT P6SM SKC
     FM310900 17009KT P6SM SKC
     FM311200 16011KT P6SM FEW300
     FM311600 15014G22KT P6SM SCT250
     FM311900 14019G25KT P6SM SCT200
     FM010000 14016G22KT P6SM SCT220=



000
FTUS43 KBIS 310500
TAFDIK
TAF
KDIK 310539Z 3106/0106 13011KT P6SM OVC008
      TEMPO 3106/3110 OVC011
     FM311000 14015G20KT P6SM SCT012 SCT300
     FM311300 15017G25KT P6SM SCT010 SCT300
     FM311600 15023G29KT P6SM SCT035 SCT250
     FM311800 15027G38KT P6SM SCT200
     FM010000 14020G26KT P6SM SCT220=



000
FTUS43 KBIS 310500
TAFJMS
TAF
KJMS 310539Z 3106/0106 VRB02KT P6SM SKC
     FM311500 15007KT P6SM SKC
     FM311800 16011KT P6SM FEW300
     FM312100 16014G19KT P6SM SCT250
     FM010100 15016G22KT P6SM FEW180 SCT220
      AMD NOT SKED=



000
FTUS43 KBIS 310500
TAFBIS
TAF
KBIS 310539Z 3106/0106 08004KT P6SM SKC
     FM311000 12006KT P6SM SKC
     FM311500 14015KT P6SM FEW300
     FM311900 15018G27KT P6SM FEW180 SCT250
     FM010000 14017G24KT P6SM SCT200=



000
FTUS43 KBIS 310500
TAFISN
TAF
KISN 310539Z 3106/0106 13012G17KT P6SM OVC015
      TEMPO 3106/3108 BKN015 OVC020
     FM310800 14013G18KT P6SM SCT015
     FM311200 14011KT P6SM FEW020 SCT300
     FM311600 14017G25KT P6SM FEW180 SCT250
     FM010000 13011KT P6SM SCT250=



000
FTUS43 KBIS 310300 AAA
TAFISN
TAF AMD
KISN 310346Z 3104/3124 14011KT P6SM OVC017
     FM310600 14008KT P6SM SCT020
     FM311200 14011KT P6SM SCT030
     FM311700 15017G25KT P6SM SCT140=



000
FTUS43 KBIS 310300 AAA
TAFISN
TAF AMD
KISN 310346Z 3104/3124 14011KT P6SM OVC017
     FM310600 14008KT P6SM SCT020
     FM311200 14011KT P6SM SCT030
     FM311700 15017G25KT P6SM SCT140=



000
FTUS43 KBIS 310100 AAA
TAFBIS
TAF AMD
KBIS 310127Z 3101/3124 04009KT P6SM OVC025
     FM310230 05005KT P6SM SCT025
     FM310400 09004KT P6SM SKC
     FM311600 15013KT P6SM SKC
     FM312000 15019G28KT P6SM FEW200=



000
FTUS43 KBIS 310100 AAA
TAFDIK
TAF AMD
KDIK 310121Z 3101/3124 09008KT P6SM OVC010
     FM310300 11008KT 5SM BR OVC006
     FM310600 14012KT 2SM BR OVC004
     FM311000 15014KT P6SM SCT005 BKN020
     FM311500 16020G29KT P6SM SCT035
     FM311700 15027G38KT P6SM SCT200=



000
FTUS43 KBIS 310000 AAA
TAFJMS
TAF AMD
KJMS 310057Z 3101/3124 03008KT P6SM SKC
     FM311300 14004KT P6SM FEW250
     FM311600 16009KT P6SM FEW250
      AMD NOT SKED=



000
FTUS43 KBIS 302300
TAFJMS
TAF
KJMS 302334Z 3100/3124 36012KT P6SM SCT025
     FM310200 03008KT P6SM SKC
     FM311300 14004KT P6SM FEW250
     FM311600 16009KT P6SM FEW250=



000
FTUS43 KBIS 302300
TAFMOT
TAF
KMOT 302334Z 3100/3124 02005KT P6SM SKC
     FM310400 09005KT P6SM SKC
     FM311100 15009KT P6SM SKC
     FM311600 15014G22KT P6SM FEW250=



000
FTUS43 KBIS 302300
TAFISN
TAF
KISN 302334Z 3100/3124 09006KT P6SM OVC015
     FM310300 10006KT P6SM SCT015
     FM310500 12008KT P6SM SKC
     FM311200 14011KT P6SM SCT030
     FM311700 15017G25KT P6SM SCT140=



000
FTUS43 KBIS 302300
TAFBIS
TAF
KBIS 302334Z 3100/3124 01007KT P6SM OVC017
     FM310200 04005KT P6SM SKC
     FM311600 15013KT P6SM SKC
     FM312000 15019G28KT P6SM FEW200=



000
FTUS43 KBIS 302300
TAFDIK
TAF
KDIK 302334Z 3100/3124 07008KT 6SM BR OVC008
     FM310200 11008KT 5SM BR OVC006
     FM310600 14012KT 2SM BR OVC004
     FM311000 15014KT P6SM SCT005 BKN020
     FM311500 16020G29KT P6SM SCT035
     FM311700 15027G38KT P6SM SCT200=



000
FTUS43 KBIS 302200 AAC
TAFMOT
TAF AMD
KMOT 302220Z 3022/3118 35007G16KT P6SM SCT020
     FM302300 01007KT P6SM SCT250
     FM310400 09005KT P6SM SKC
     FM311100 15009KT P6SM SKC
     FM311600 15014G22KT P6SM FEW210=



000
FTUS43 KBIS 302200 AAC
TAFMOT
TAF AMD
KMOT 302220Z 3022/3118 35007G16KT P6SM SCT020
     FM302300 01007KT P6SM SCT250
     FM310400 09005KT P6SM SKC
     FM311100 15009KT P6SM SKC
     FM311600 15014G22KT P6SM FEW210=



000
FTUS43 KBIS 302200 AAB
TAFJMS
TAF AMD
KJMS 302219Z 3022/3118 35015KT P6SM SCT028
     FM310200 01011KT P6SM FEW250
     FM311300 14004KT P6SM FEW250
     FM311600 16009G20KT P6SM FEW240=



000
FTUS43 KBIS 302200 AAB
TAFJMS
TAF AMD
KJMS 302219Z 3022/3118 35015KT P6SM SCT028
     FM310200 01011KT P6SM FEW250
     FM311300 14004KT P6SM FEW250
     FM311600 16009G20KT P6SM FEW240=



000
FTUS43 KBIS 302200 AAC
TAFDIK
TAF AMD
KDIK 302217Z 3022/3118 05010KT P6SM OVC010
     FM310200 06007KT P6SM OVC007
      TEMPO 3106/3110 3SM -FZDZ BR
     FM311300 15014KT P6SM SCT240
     FM311600 16020G29KT P6SM SCT190=



000
FTUS43 KBIS 302200 AAC
TAFDIK
TAF AMD
KDIK 302217Z 3022/3118 05010KT P6SM OVC010
     FM310200 06007KT P6SM OVC007
      TEMPO 3106/3110 3SM -FZDZ BR
     FM311300 15014KT P6SM SCT240
     FM311600 16020G29KT P6SM SCT190=



000
FTUS43 KBIS 302000 AAA
TAFBIS
TAF AMD
KBIS 302050Z 3021/3118 36010KT P6SM OVC014
     FM310100 02005KT P6SM SCT250
     FM310700 10005KT P6SM SKC
     FM311300 14009KT P6SM SKC
     FM311600 15013G23KT P6SM FEW240=



000
FTUS43 KBIS 302000 AAA
TAFISN
TAF AMD
KISN 302050Z 3021/3118 06006KT P6SM OVC013
     FM310400 12008KT P6SM SCT250
     FM311500 15014G25KT P6SM SCT180=



000
FTUS43 KBIS 302000 AAB
TAFMOT
TAF AMD
KMOT 302050Z 3021/3118 35009KT P6SM BKN019
     FM302300 01007KT P6SM SCT250
     FM310400 09005KT P6SM SKC
     FM311100 15009KT P6SM SKC
     FM311600 15014G22KT P6SM FEW210=



000
FTUS43 KBIS 302000 AAA
TAFJMS
TAF AMD
KJMS 302050Z 3021/3118 35015G24KT P6SM SCT020
     FM302200 35014KT P6SM SCT250
     FM310200 01005KT P6SM FEW250
     FM311300 14004KT P6SM FEW250
     FM311600 16009G20KT P6SM FEW240=



000
FTUS43 KBIS 302000 AAB
TAFDIK
TAF AMD
KDIK 302050Z 3021/3118 03007KT P6SM OVC013
     FM310200 09007KT P6SM OVC007
      TEMPO 3106/3110 3SM -FZDZ BR
     FM311300 15014KT P6SM SCT240
     FM311600 16020G29KT P6SM SCT190=



000
FTUS43 KBIS 301900 AAA
TAFDIK
TAF AMD
KDIK 301928Z 3019/3118 36011KT 6SM BR OVC010
     FM310200 06007KT P6SM SCT020
     FM310600 14015KT P6SM SCT025=



000
FTUS43 KBIS 301900 AAA
TAFMOT
TAF AMD
KMOT 301912Z 3019/3118 36011KT P6SM OVC015
     FM310000 03006KT P6SM FEW035
     FM310600 10005KT P6SM SKC
     FM311000 14011KT P6SM SKC=



000
FTUS43 KBIS 301700
TAFISN
TAF
KISN 301737Z 3018/3118 03008KT P6SM BKN010
     FM302200 06008KT P6SM SCT030
     FM310200 11006KT P6SM SKC
     FM311300 14011KT P6SM SKC=



000
FTUS43 KBIS 301700
TAFBIS
TAF
KBIS 301737Z 3018/3118 36011KT P6SM OVC015
     FM302000 01012KT P6SM SCT025
     FM310300 06006KT P6SM SKC
     FM311200 14011KT P6SM SKC=



000
FTUS43 KBIS 301700
TAFJMS
TAF
KJMS 301737Z 3018/3118 35015G20KT P6SM BKN010
     FM302000 36015G20KT P6SM SCT025 BKN035
     FM310000 36011KT P6SM SKC
     FM311200 12008KT P6SM SKC=



000
FTUS43 KBIS 301700
TAFBIS
TAF
KBIS 301737Z 3018/3118 36011KT P6SM OVC015
     FM302000 01012KT P6SM SCT025
     FM310300 06006KT P6SM SKC
     FM311200 14011KT P6SM SKC=



000
FTUS43 KBIS 301700
TAFDIK
TAF
KDIK 301737Z 3018/3118 36011KT 5SM BR OVC010
     FM302000 01010KT P6SM SCT030
     FM310100 06007KT P6SM SKC
     FM310600 14015KT P6SM SCT025=



000
FTUS43 KBIS 301700
TAFISN
TAF
KISN 301737Z 3018/3118 03008KT P6SM BKN010
     FM302200 06008KT P6SM SCT030
     FM310200 11006KT P6SM SKC
     FM311300 14011KT P6SM SKC=



000
FTUS43 KBIS 301700
TAFMOT
TAF
KMOT 301737Z 3018/3118 36011KT P6SM SCT025 BKN035
     FM310000 03006KT P6SM SCT035
     FM310600 10005KT P6SM SKC
     FM311000 14011KT P6SM SKC=



000
FTUS43 KBIS 301700
TAFJMS
TAF
KJMS 301737Z 3018/3118 35015G20KT P6SM BKN010
     FM302000 36015G20KT P6SM SCT025 BKN035
     FM310000 36011KT P6SM SKC
     FM311200 12008KT P6SM SKC=



000
FTUS43 KBIS 301700
TAFDIK
TAF
KDIK 301737Z 3018/3118 36011KT 5SM BR OVC010
     FM302000 01010KT P6SM SCT030
     FM310100 06007KT P6SM SKC
     FM310600 14015KT P6SM SCT025=



000
FTUS43 KBIS 301700
TAFMOT
TAF
KMOT 301737Z 3018/3118 36011KT P6SM SCT025 BKN035
     FM310000 03006KT P6SM SCT035
     FM310600 10005KT P6SM SKC
     FM311000 14011KT P6SM SKC=



000
FTUS43 KBIS 301400 AAA
TAFDIK
TAF AMD
KDIK 301422Z 3014/3112 33011KT 4SM BR FEW005 OVC015
     FM301600 36009KT P6SM OVC020
     FM301900 01010KT P6SM SCT015 BKN035
     FM310100 06007KT P6SM SCT035
     FM310600 14015KT P6SM SCT025=



000
FTUS43 KBIS 301400 AAB
TAFJMS
TAF AMD
KJMS 301422Z 3014/3112 01015KT P6SM FEW025
     FM301500 35017G25KT P6SM BKN015
     FM302000 36017G25KT P6SM SCT025 BKN035
     FM310000 36012KT P6SM SCT035
     FM310600 VRB03KT P6SM SKC=



000
FTUS43 KBIS 301400 AAA
TAFBIS
TAF AMD
KBIS 301421Z 3014/3112 31008KT P6SM FEW010
     FM301500 33012KT P6SM OVC015
      TEMPO 3016/3018 OVC007
     FM301900 36012KT P6SM BKN025 OVC035
     FM302100 01012KT P6SM SCT025 SCT035
     FM310300 05006KT P6SM SKC
     FM310800 12006KT P6SM SKC=



000
FTUS43 KBIS 301300 AAA
TAFBIS
TAF AMD
KBIS 301301Z 3013/3112 31008KT P6SM FEW010
     FM301430 33012KT P6SM OVC015
      TEMPO 3016/3018 OVC007
     FM301900 36012KT P6SM BKN025 OVC035
     FM302100 01012KT P6SM SCT025 SCT035
     FM310300 05006KT P6SM SKC
     FM310800 12006KT P6SM SKC=



000
FTUS43 KBIS 301300 AAA
TAFMOT
TAF AMD
KMOT 301300Z 3013/3112 34011KT P6SM OVC005
     FM301500 35010KT P6SM OVC012
     FM301800 36011KT P6SM SCT025 BKN035
     FM310000 03006KT P6SM SCT035
     FM310600 10005KT P6SM SKC=



000
FTUS43 KBIS 301200 AAA
TAFJMS
TAF AMD
KJMS 301246Z 3013/3112 01015KT 6SM BR SCT025
     FM301400 35017G25KT P6SM BKN015
     FM302000 36017G25KT P6SM SCT025 BKN035
     FM310000 36012KT P6SM SCT035
     FM310600 VRB03KT P6SM SKC=



000
FTUS43 KBIS 301200 AAA
TAFISN
TAF AMD
KISN 301204Z 3012/3112 34011KT P6SM OVC012
     FM301800 03008KT P6SM SCT020 BKN030
     FM310000 08006KT P6SM SCT035
     FM310600 13006KT P6SM SCT025=



000
FTUS43 KBIS 301100
TAFBIS
TAF
KBIS 301130Z 3012/3112 31008KT P6SM SKC
     FM301300 33012KT P6SM OVC015
     FM301900 36012KT P6SM BKN025 OVC035
     FM302100 01012KT P6SM SCT025 SCT035
     FM310300 05006KT P6SM SKC
     FM310800 12006KT P6SM SKC=



000
FTUS43 KBIS 301100
TAFMOT
TAF
KMOT 301130Z 3012/3112 34011KT P6SM BKN020
     FM301800 36011KT P6SM SCT025 BKN035
     FM310000 03006KT P6SM SCT035
     FM310600 10005KT P6SM SKC=



000
FTUS43 KBIS 301100
TAFJMS
TAF
KJMS 301130Z 3012/3112 01015KT 3SM BR OVC002
     FM301500 35017G25KT P6SM BKN015 OVC025
     FM302000 36017G25KT P6SM SCT025 BKN035
     FM310000 36012KT P6SM SCT035
     FM310600 VRB03KT P6SM SKC=



000
FTUS43 KBIS 301100
TAFISN
TAF
KISN 301130Z 3012/3112 34011KT P6SM OVC020
     FM301800 03008KT P6SM SCT020 BKN035
     FM310000 08006KT P6SM SCT035
     FM310600 13006KT P6SM SCT025=



000
FTUS43 KBIS 301100
TAFDIK
TAF
KDIK 301130Z 3012/3112 33011KT 6SM BR OVC004
     FM301600 36009KT P6SM OVC009
     FM301900 01010KT P6SM SCT015 BKN035
     FM310100 06007KT P6SM SCT035
     FM310600 14015KT P6SM SCT025=



000
FTUS43 KBIS 301100 AAC
TAFJMS
TAF AMD
KJMS 301101Z 3011/3106 35012KT 1/2SM FG VV002
      TEMPO 3011/3012 3SM BR SCT002
     FM301200 33012KT P6SM SCT005 OVC012
     FM301500 35017G25KT P6SM OVC015
     FM302000 36017G25KT P6SM SCT025 BKN035
     FM310000 36012KT P6SM SCT035=



000
FTUS43 KBIS 301100 AAC
TAFJMS
TAF AMD
KJMS 301101Z 3011/3106 35012KT 1/2SM FG VV002
      TEMPO 3011/3012 3SM BR SCT002
     FM301200 33012KT P6SM SCT005 OVC012
     FM301500 35017G25KT P6SM OVC015
     FM302000 36017G25KT P6SM SCT025 BKN035
     FM310000 36012KT P6SM SCT035=



000
FTUS43 KBIS 300900 AAA
TAFDIK
TAF AMD
KDIK 300906Z 3009/3106 30010KT P6SM SCT007 SCT015
     FM301000 32010KT P6SM SCT006 BKN015 OVC022
      TEMPO 3010/3014 4SM BR OVC006
     FM301400 34010KT P6SM OVC012
     FM301900 01010KT P6SM SCT015 BKN035
     FM310100 06007KT P6SM SCT035
     FM310300 12012KT P6SM SKC=



000
FTUS43 KBIS 300900 AAA
TAFMOT
TAF AMD
KMOT 300904Z 3009/3106 31008KT P6SM SCT007 SCT015
     FM301000 33012KT P6SM SCT007 BKN015 OVC022
      TEMPO 3010/3014 5SM BR OVC007
     FM301400 36010KT P6SM SCT008 OVC015
     FM301800 36011KT P6SM SCT025 BKN035
     FM310000 03006KT P6SM SCT035=



000
FTUS43 KBIS 300900 AAA
TAFISN
TAF AMD
KISN 300901Z 3009/3106 34011KT P6SM BKN013 OVC022
      TEMPO 3009/3013 5SM BR OVC005
     FM301400 36008KT P6SM OVC015
     FM301800 03008KT P6SM SCT020 BKN035
     FM310000 08006KT P6SM SCT035=



000
FTUS43 KBIS 300800 AAA
TAFBIS
TAF AMD
KBIS 300859Z 3009/3106 30007KT P6SM SKC
     FM301200 32010KT P6SM OVC015
      TEMPO 3012/3015 OVC007
     FM301900 36012KT P6SM BKN025 OVC035
     FM302100 01012KT P6SM SCT025 SCT035
     FM310300 05006KT P6SM SKC=



000
FTUS43 KBIS 300800 AAB
TAFJMS
TAF AMD
KJMS 300856Z 3009/3106 31008KT P6SM SKC
      TEMPO 3009/3010 3SM BR SCT001
     FM301200 33012KT P6SM OVC012
     FM301500 35017G25KT P6SM OVC015
     FM302000 36017G25KT P6SM SCT025 BKN035
     FM310000 36012KT P6SM SCT035=



000
FTUS43 KBIS 300800 AAA
TAFJMS
TAF AMD
KJMS 300832Z 3009/3106 29005KT 1/4SM FG VV001
      TEMPO 3009/3011 2SM BR SCT010
     FM301100 33012KT P6SM OVC012
     FM301500 35017G25KT P6SM OVC015
     FM302000 36017G25KT P6SM SCT025 BKN035
     FM310000 36012KT P6SM SCT035=



000
FTUS43 KBIS 300500
TAFDIK
TAF
KDIK 300536Z 3006/3106 30010KT P6SM SKC
     FM300900 32010KT P6SM -DZ OVC012
      TEMPO 3009/3013 4SM -DZ BR OVC004
     FM301300 34010KT P6SM OVC008
     FM301900 01010KT P6SM SCT015 BKN035
     FM310100 06007KT P6SM SCT035
     FM310300 12012KT P6SM SKC=



000
FTUS43 KBIS 300500
TAFMOT
TAF
KMOT 300536Z 3006/3106 30010KT P6SM SKC
     FM300800 32012KT P6SM BKN015
      TEMPO 3008/3011 5SM -DZ BR OVC005
     FM301100 34011KT P6SM OVC010
      TEMPO 3011/3014 5SM -FZDZ BR OVC004
     FM301400 36010KT P6SM OVC008
     FM301800 36011KT P6SM SCT025 BKN035
     FM310000 03006KT P6SM SCT035=



000
FTUS43 KBIS 300500
TAFISN
TAF
KISN 300536Z 3006/3106 34011KT P6SM SKC
     FM300700 34010KT P6SM OVC015
      TEMPO 3007/3010 5SM -DZ BR OVC005
     FM301000 34009KT P6SM OVC009
      TEMPO 3010/3014 5SM -FZDZ OVC004
     FM301400 36008KT P6SM OVC015
     FM301800 03008KT P6SM SCT020 BKN035
     FM310000 08006KT P6SM SCT035=



000
FTUS43 KBIS 300500
TAFBIS
TAF
KBIS 300536Z 3006/3106 29004KT P6SM VCFG SKC
      TEMPO 3006/3010 2SM BR
     FM301000 32010KT P6SM OVC015
      TEMPO 3011/3015 OVC007
     FM301900 36012KT P6SM BKN025 OVC035
     FM302100 01012KT P6SM SCT025 SCT035
     FM310300 05006KT P6SM SKC=



000
FTUS43 KBIS 300500
TAFJMS
TAF
KJMS 300536Z 3006/3106 23005KT P6SM BKN050 BKN070
     FM300700 29005KT P6SM VCFG SKC
      TEMPO 3007/3011 2SM BR
     FM301100 33012KT P6SM OVC012
     FM301500 35017G25KT P6SM OVC015
     FM302000 36017G25KT P6SM SCT025 BKN035
     FM310000 36012KT P6SM SCT035=



000
FTUS43 KBIS 300300 AAA
TAFDIK
TAF AMD
KDIK 300315Z 3003/3024 28009KT P6SM SKC
     FM300500 31010KT P6SM SCT250
     FM300800 32010KT P6SM -DZ BKN015
     FM301000 33009KT P6SM OVC008
     FM301800 01009KT P6SM BKN035
     FM302100 02008KT P6SM SCT035=



000
FTUS43 KBIS 300300 AAA
TAFISN
TAF AMD
KISN 300314Z 3003/3024 34011KT P6SM SKC
     FM300700 34010KT P6SM -DZ OVC015
     FM301000 34009KT P6SM -FZDZ OVC009
     FM301200 35007KT P6SM OVC020
     FM301800 03008KT P6SM SCT035=



000
FTUS43 KBIS 300300 AAA
TAFMOT
TAF AMD
KMOT 300314Z 3003/3024 28009KT P6SM SKC
     FM300700 33012KT P6SM -DZ BKN020
     FM301000 34011KT P6SM -FZDZ OVC010
     FM301200 35010KT P6SM OVC008
     FM301700 36011KT P6SM SCT030=



000
FTUS43 KBIS 300300 AAA
TAFBIS
TAF AMD
KBIS 300312Z 3003/3024 21004KT P6SM VCFG SKC
      TEMPO 3003/3006 2SM BR
     FM300600 31009KT P6SM SCT250
     FM301200 35012KT P6SM BKN015
     FM302100 01009KT P6SM FEW035=



000
FTUS43 KBIS 292300
TAFBIS
TAF
KBIS 292333Z 3000/3024 20008KT P6SM -RA SCT050 OVC060
     FM300100 VRB03KT P6SM SCT250
     FM300600 31009KT P6SM SCT250
     FM301200 35012KT P6SM BKN015
     FM302100 01009KT P6SM FEW035=



000
FTUS43 KBIS 292300
TAFMOT
TAF
KMOT 292333Z 3000/3024 21006KT P6SM FEW080 BKN100
     FM300700 33012KT P6SM -DZ BKN030
     FM301000 34011KT P6SM -FZDZ OVC015
     FM301200 35010KT P6SM OVC020
     FM301700 36011KT P6SM SCT030=



000
FTUS43 KBIS 292300
TAFDIK
TAF
KDIK 292333Z 3000/3024 25007KT P6SM FEW060
     FM300500 31010KT P6SM SCT250
     FM300800 32010KT P6SM -DZ BKN015
     FM301200 33009KT P6SM OVC020
     FM301800 01009KT P6SM BKN035
     FM302100 02008KT P6SM SCT035=



000
FTUS43 KBIS 292300
TAFJMS
TAF
KJMS 292333Z 3000/3024 17010KT P6SM OVC090
     FM300500 25004KT P6SM BKN250
     FM301200 33011KT P6SM BKN020
     FM301800 35017G25KT P6SM BKN030
     FM302000 35017G25KT P6SM SCT035=



000
FTUS43 KBIS 292300
TAFISN
TAF
KISN 292333Z 3000/3024 16006KT P6SM SKC
     FM300700 34010KT P6SM -DZ BKN025
     FM301000 34009KT P6SM -FZDZ OVC020
     FM301200 35007KT P6SM OVC030
     FM301800 03008KT P6SM SCT035=



000
FTUS43 KBIS 291900 AAA
TAFJMS
TAF AMD
KJMS 291904Z 2919/3018 19008KT P6SM SCT035
     FM292000 18010KT P6SM BKN120
      TEMPO 2923/3002 6SM -SHRA BKN060
     FM300400 23006KT P6SM BKN050
     FM301000 32010KT P6SM BKN020
     FM301700 35016G24KT P6SM BKN028=



000
FTUS43 KBIS 291800 AAB
TAFISN
TAF AMD
KISN 291855Z 2919/3018 22007KT P6SM VCSH BKN080
      TEMPO 2919/2921 6SM -SHRA BKN060
     FM292100 25008KT P6SM SCT100
     FM300200 32009KT P6SM SCT250
     FM300300 33008KT P6SM BKN020
     FM300600 33007KT P6SM OVC008=



000
FTUS43 KBIS 291800 AAA
TAFISN
TAF AMD
KISN 291811Z 2918/3018 22007KT P6SM VCSH BKN080
      TEMPO 2919/2921 6SM -SHRA BKN060
     FM292100 25008KT P6SM SCT100
     FM300200 32009KT P6SM SCT250
     FM300300 02008KT P6SM BKN029=



000
FTUS43 KBIS 291700
TAFBIS
TAF
KBIS 291740Z 2918/3018 17010KT P6SM SCT130
     FM292000 19009KT P6SM BKN090
      TEMPO 2920/2923 6SM -SHRA BKN070
     FM292300 19005KT P6SM BKN060
     FM300300 25006KT P6SM SCT120
     FM300900 32012KT P6SM BKN010=



000
FTUS43 KBIS 291700
TAFISN
TAF
KISN 291740Z 2918/3018 22007KT P6SM VCSH BKN080
     FM292100 25008KT P6SM SCT100
     FM300200 32009KT P6SM SCT250
     FM300300 02008KT P6SM BKN029=



000
FTUS43 KBIS 291700
TAFMOT
TAF
KMOT 291740Z 2918/3018 16010KT P6SM BKN090
     FM292100 20009KT P6SM BKN080
     FM292300 21005KT P6SM BKN070
     FM300000 22005KT P6SM SCT100
     FM300400 36011KT P6SM BKN015=



000
FTUS43 KBIS 291700
TAFJMS
TAF
KJMS 291740Z 2918/3018 19008KT P6SM SCT035
     FM292000 18010KT P6SM BKN120
     FM300400 23006KT P6SM BKN050
     FM301000 32010KT P6SM BKN022
     FM301700 35016G24KT P6SM BKN028=



000
FTUS43 KBIS 291700
TAFDIK
TAF
KDIK 291740Z 2918/3018 23009KT P6SM VCSH BKN070
     FM292100 27009KT P6SM BKN060
     FM292300 26007KT P6SM SCT090
     FM300400 30011KT P6SM FEW250
     FM300600 32011KT P6SM BKN013
      TEMPO 3007/3011 BKN009=



000
FTUS43 KBIS 291500 AAA
TAFISN
TAF AMD
KISN 291513Z 2915/3012 19005KT P6SM SCT100
     FM291700 23007KT P6SM VCSH BKN080
     FM291900 26009KT P6SM BKN090
     FM300400 33009KT P6SM BKN029=



000
FTUS43 KBIS 291500 AAA
TAFMOT
TAF AMD
KMOT 291513Z 2915/3012 16008KT P6SM SCT100
     FM291600 16009KT P6SM BKN100
     FM292100 20009KT P6SM SCT080
     FM300100 25008KT P6SM FEW120
     FM300300 29010KT P6SM BKN020=



000
FTUS43 KBIS 291500 AAA
TAFBIS
TAF AMD
KBIS 291513Z 2915/3012 16007KT P6SM SCT120
     FM291700 18010KT P6SM BKN110
      TEMPO 2919/2922 6SM -SHRA BKN070
     FM300000 21006KT P6SM BKN060
     FM300300 27006KT P6SM SCT050
     FM300500 30009KT P6SM SCT250
     FM300900 33011KT P6SM BKN020=



000
FTUS43 KBIS 291500 AAA
TAFJMS
TAF AMD
KJMS 291513Z 2915/3012 18004KT P6SM BKN020
     FM291700 18010KT P6SM SCT120
     FM300500 26007KT P6SM SCT060
     FM301000 32011KT P6SM BKN020=



000
FTUS43 KBIS 291500 AAA
TAFDIK
TAF AMD
KDIK 291513Z 2915/3012 20009KT P6SM BKN250
     FM291700 24010KT P6SM BKN080
      TEMPO 2917/2919 6SM -SHRA BKN060
     FM292300 27010KT P6SM SCT080
     FM300700 31009KT P6SM BKN027=



000
FTUS43 KBIS 291100
TAFMOT
TAF
KMOT 291123Z 2912/3012 15005KT P6SM OVC018
     FM291300 17006KT P6SM BKN100
     FM292100 23010KT P6SM SCT040 BKN080
     FM300300 28008KT P6SM SCT025 BKN035 OVC080
     FM300800 31012KT P6SM BKN020 OVC030=



000
FTUS43 KBIS 291100
TAFISN
TAF
KISN 291123Z 2912/3012 16005KT P6SM SCT100
     FM291800 23007KT P6SM SCT040 BKN080
     FM300100 27007KT P6SM BKN040 BKN080
     FM300400 33010KT P6SM BKN025 OVC035
     FM300800 33010KT P6SM BKN015 OVC025=



000
FTUS43 KBIS 291100
TAFJMS
TAF
KJMS 291123Z 2912/3012 33005KT P6SM OVC019
     FM291700 16008KT P6SM SCT025 BKN250
     FM292000 19010KT P6SM BKN080
     FM300200 23008KT P6SM BKN035 OVC080
     FM300800 32010KT P6SM BKN025 OVC035=



000
FTUS43 KBIS 291100
TAFDIK
TAF
KDIK 291123Z 2912/3012 17009KT P6SM SCT250
     FM291500 20008KT P6SM BKN100
     FM291800 24010KT P6SM SCT035 BKN080
     FM300500 31010KT P6SM BKN025 OVC035
     FM300900 32010KT P6SM BKN015 OVC025=



000
FTUS43 KBIS 291100
TAFBIS
TAF
KBIS 291123Z 2912/3012 25005KT P6SM SKC
     FM291400 14006KT P6SM SCT100 SCT250
     FM291600 18010KT P6SM BKN100
     FM292300 23009KT P6SM BKN035 BKN070
     FM300600 32010KT P6SM BKN025 OVC035=



000
FTUS43 KBIS 291000 AAA
TAFBIS
TAF AMD
KBIS 291001Z 2910/3006 22005KT P6SM SKC
      TEMPO 2910/2914 3SM BR
     FM291400 14006KT P6SM SCT130
     FM291600 18010KT P6SM BKN100
     FM292300 21009KT P6SM BKN035 BKN070=



000
FTUS43 KBIS 290900 AAA
TAFMOT
TAF AMD
KMOT 290940Z 2910/3006 VRB03KT P6SM OVC018
     FM291100 14004KT 3SM BR SCT200
     FM291400 17096KT P6SM BKN100
     FM292100 23010KT P6SM SCT040 BKN080
     FM300300 28008KT P6SM SCT025 BKN035 OVC080=



000
FTUS43 KBIS 290500
TAFISN
TAF
KISN 290524Z 2906/3006 VRB03KT P6SM SCT200
     FM291100 15005KT P6SM BKN110
     FM291800 23007KT P6SM SCT040 BKN080
     FM300100 27007KT P6SM BKN040 BKN080
     FM300400 33010KT P6SM BKN025 OVC035=



000
FTUS43 KBIS 290500
TAFDIK
TAF
KDIK 290524Z 2906/3006 19004KT P6SM FEW250
     FM291200 18008KT P6SM SCT100
     FM291500 20008KT P6SM BKN100
     FM291800 24010KT P6SM SCT035 BKN080
     FM292300 27014KT P6SM BKN035 OVC080
     FM300500 31010KT P6SM BKN025 OVC035=



000
FTUS43 KBIS 290500
TAFBIS
TAF
KBIS 290524Z 2906/3006 VRB03KT P6SM SCT018 OVC025
     FM290800 VRB03KT 3SM BR SCT200
     FM291400 14006KT P6SM SCT130
     FM291600 18010KT P6SM BKN100
     FM292300 21009KT P6SM BKN035 BKN070=



000
FTUS43 KBIS 290500
TAFJMS
TAF
KJMS 290524Z 2906/3006 33013KT P6SM SCT016 OVC022
     FM291000 30005KT P6SM OVC018
     FM291600 17008KT P6SM SCT025 BKN250
     FM292000 19010KT P6SM BKN080
     FM300200 23008KT P6SM BKN035 OVC080=



000
FTUS43 KBIS 290500
TAFMOT
TAF
KMOT 290524Z 2906/3006 VRB03KT P6SM SCT018 OVC023
      TEMPO 2906/2910 BKN018 OVC025
     FM291000 14004KT 3SM BR SCT200
     FM291400 17096KT P6SM BKN100
     FM292100 23010KT P6SM SCT040 BKN080
     FM300300 28008KT P6SM SCT025 BKN035 OVC080=



000
FTUS43 KBIS 290300 AAA
TAFDIK
TAF AMD
KDIK 290305Z 2903/2924 20004KT P6SM SKC
     FM290600 19004KT P6SM FEW250
     FM291200 18008KT P6SM SCT150
     FM291700 23010KT P6SM SCT080 BKN200
     FM292100 27015KT P6SM BKN100=



000
FTUS43 KBIS 290300 AAA
TAFBIS
TAF AMD
KBIS 290302Z 2903/2924 29007KT P6SM OVC035
     FM290800 VRB03KT 3SM BR SCT200
     FM291200 14006KT P6SM SCT130
     FM291700 18010KT P6SM BKN100
     FM292100 18009KT P6SM BKN070=



000
FTUS43 KBIS 290200 AAA
TAFJMS
TAF AMD
KJMS 290256Z 2903/2924 33013KT P6SM OVC025
     FM291000 25005KT P6SM OVC018
     FM291600 19007KT P6SM SCT025 BKN250=



    US Dept of Commerce
    National Oceanic and Atmospheric Administration
    National Weather Service
    1325 East West Highway
    Silver Spring, MD 20910
    Page Author: NWS Internet Services Team
Disclaimer
Information Quality
Credits
Glossary
Privacy Policy
Freedom of Information Act (FOIA)
About Us
Career Opportunities